createdAt,value
2019-06-04T00:01:57.812Z,17.90
2019-06-04T00:04:26.295Z,17.93
2019-06-04T00:06:54.745Z,17.96
2019-06-04T00:09:23.228Z,17.95
2019-06-04T00:11:51.634Z,17.95
2019-06-04T00:14:20.059Z,17.93
2019-06-04T00:16:48.463Z,17.85
2019-06-04T00:19:16.921Z,17.77
2019-06-04T00:21:45.348Z,17.72
2019-06-04T00:24:13.777Z,17.71
2019-06-04T00:26:42.204Z,17.73
2019-06-04T00:29:10.642Z,17.73
2019-06-04T00:31:39.432Z,17.71
2019-06-04T00:34:09.260Z,17.72
2019-06-04T00:36:37.778Z,17.76
2019-06-04T00:39:08.733Z,17.74
2019-06-04T00:41:37.334Z,17.73
2019-06-04T00:44:05.839Z,17.78
2019-06-04T00:46:34.346Z,17.81
2019-06-04T00:49:03.215Z,17.83
2019-06-04T00:51:31.654Z,17.82
2019-06-04T00:54:01.051Z,17.80
2019-06-04T00:56:29.448Z,17.79
2019-06-04T00:58:57.889Z,17.70
2019-06-04T01:01:26.321Z,17.68
2019-06-04T01:03:54.771Z,17.69
2019-06-04T01:06:23.173Z,17.70
2019-06-04T01:08:51.619Z,17.69
2019-06-04T01:11:20.318Z,17.63
2019-06-04T01:13:48.849Z,17.64
2019-06-04T01:16:17.277Z,17.63
2019-06-04T01:18:45.739Z,17.61
2019-06-04T01:21:14.598Z,17.55
2019-06-04T01:23:42.978Z,17.42
2019-06-04T01:26:11.409Z,17.30
2019-06-04T01:28:39.841Z,17.25
2019-06-04T01:31:08.589Z,17.21
2019-06-04T01:33:40.299Z,17.15
2019-06-04T01:36:08.561Z,17.11
2019-06-04T01:38:37.158Z,17.14
2019-06-04T01:41:07.015Z,17.15
2019-06-04T01:43:35.518Z,17.12
2019-06-04T01:46:03.959Z,17.13
2019-06-04T01:48:32.379Z,17.16
2019-06-04T01:51:01.983Z,17.13
2019-06-04T01:53:30.636Z,17.13
2019-06-04T01:55:59.180Z,17.13
2019-06-04T01:58:27.592Z,16.96
2019-06-04T02:00:56.033Z,17.05
2019-06-04T02:03:24.545Z,17.06
2019-06-04T02:05:52.994Z,16.91
2019-06-04T02:08:21.395Z,16.91
2019-06-04T02:10:49.870Z,16.96
2019-06-04T02:13:18.290Z,16.81
2019-06-04T02:15:46.696Z,16.73
2019-06-04T02:18:15.296Z,16.55
2019-06-04T02:20:43.778Z,16.23
2019-06-04T02:23:12.369Z,16.51
2019-06-04T02:25:40.973Z,16.51
2019-06-04T02:28:10.457Z,16.56
2019-06-04T02:30:38.943Z,16.38
2019-06-04T02:33:13.557Z,16.09
2019-06-04T02:35:37.622Z,16.02
2019-06-04T02:38:06.867Z,15.80
2019-06-04T02:40:47.320Z,15.85
2019-06-04T02:43:18.741Z,15.67
2019-06-04T02:45:48.626Z,15.59
2019-06-04T02:48:20.281Z,15.75
2019-06-04T02:50:49.441Z,15.69
2019-06-04T02:53:19.936Z,15.77
2019-06-04T02:55:53.181Z,15.87
2019-06-04T02:58:23.707Z,16.05
2019-06-04T03:01:01.898Z,16.21
2019-06-04T03:03:31.865Z,16.19
2019-06-04T03:06:00.998Z,16.33
2019-06-04T03:08:29.485Z,16.39
2019-06-04T03:10:58.040Z,16.44
2019-06-04T03:13:26.458Z,16.48
2019-06-04T03:15:54.891Z,16.50
2019-06-04T03:18:23.306Z,16.53
2019-06-04T03:20:51.785Z,16.30
2019-06-04T03:23:21.386Z,16.12
2019-06-04T03:25:50.086Z,16.17
2019-06-04T03:28:20.417Z,16.02
2019-06-04T03:30:48.659Z,16.05
2019-06-04T03:33:21.063Z,16.24
2019-06-04T03:35:47.213Z,16.27
2019-06-04T03:38:16.899Z,16.21
2019-06-04T03:40:45.423Z,16.16
2019-06-04T03:43:13.845Z,16.28
2019-06-04T03:45:42.361Z,16.33
2019-06-04T03:48:10.793Z,16.32
2019-06-04T03:50:39.244Z,16.36
2019-06-04T03:53:07.643Z,16.43
2019-06-04T03:55:36.056Z,16.46
2019-06-04T03:58:04.535Z,16.51
2019-06-04T04:00:32.934Z,16.55
2019-06-04T04:03:01.399Z,16.55
2019-06-04T04:05:29.820Z,16.53
2019-06-04T04:07:58.289Z,16.47
2019-06-04T04:10:26.927Z,16.64
2019-06-04T04:12:55.365Z,16.89
2019-06-04T04:15:24.970Z,17.28
2019-06-04T04:17:53.501Z,17.69
2019-06-04T04:20:23.050Z,17.86
2019-06-04T04:22:51.567Z,17.76
2019-06-04T04:25:20.525Z,17.80
2019-06-04T04:27:50.313Z,17.77
2019-06-04T04:30:19.001Z,17.55
2019-06-04T04:32:47.728Z,18.01
2019-06-04T04:35:17.173Z,17.79
2019-06-04T04:37:48.962Z,17.72
2019-06-04T04:40:17.690Z,18.20
2019-06-04T04:42:46.204Z,18.07
2019-06-04T04:45:14.837Z,18.07
2019-06-04T04:47:43.287Z,17.99
2019-06-04T04:50:12.052Z,18.43
2019-06-04T04:52:40.498Z,19.00
2019-06-04T04:55:09.076Z,19.28
2019-06-04T04:57:37.468Z,19.51
2019-06-04T05:00:08.332Z,19.03
2019-06-04T05:02:37.666Z,18.65
2019-06-04T05:05:06.967Z,17.67
2019-06-04T05:07:36.926Z,17.45
2019-06-04T05:10:07.025Z,17.28
2019-06-04T05:12:37.952Z,16.97
2019-06-04T05:15:08.265Z,17.11
2019-06-04T05:17:38.554Z,17.16
2019-06-04T05:20:09.813Z,16.99
2019-06-04T05:22:38.218Z,17.30
2019-06-04T05:25:07.785Z,17.61
2019-06-04T05:27:36.192Z,17.75
2019-06-04T05:30:07.499Z,17.59
2019-06-04T05:32:35.940Z,17.73
2019-06-04T05:35:06.534Z,17.46
2019-06-04T05:37:35.019Z,17.99
2019-06-04T05:40:04.119Z,17.86
2019-06-04T05:42:32.833Z,17.48
2019-06-04T05:45:01.442Z,17.50
2019-06-04T05:47:30.684Z,17.45
2019-06-04T05:49:59.146Z,17.70
2019-06-04T05:52:28.919Z,18.05
2019-06-04T05:54:57.615Z,18.20
2019-06-04T05:57:26.943Z,18.35
2019-06-04T05:59:55.386Z,18.48
2019-06-04T06:02:25.045Z,18.91
2019-06-04T06:04:53.635Z,18.97
2019-06-04T06:07:23.169Z,19.10
2019-06-04T06:09:51.747Z,19.51
2019-06-04T06:12:20.216Z,19.76
2019-06-04T06:14:48.647Z,19.69
2019-06-04T06:17:17.179Z,19.53
2019-06-04T06:19:45.621Z,19.58
2019-06-04T06:22:14.120Z,19.41
2019-06-04T06:24:42.694Z,19.89
2019-06-04T06:27:11.119Z,19.26
2019-06-04T06:29:39.592Z,19.41
2019-06-04T06:32:08.035Z,19.79
2019-06-04T06:34:39.012Z,20.31
2019-06-04T06:37:06.657Z,19.59
2019-06-04T06:39:35.335Z,19.96
2019-06-04T06:42:05.887Z,21.18
2019-06-04T06:44:34.267Z,21.45
2019-06-04T06:47:02.778Z,22.55
2019-06-04T06:49:31.504Z,22.41
2019-06-04T06:51:59.946Z,22.61
2019-06-04T06:54:29.391Z,22.98
2019-06-04T06:56:57.896Z,23.01
2019-06-04T06:59:26.315Z,23.08
2019-06-04T07:01:54.863Z,21.93
2019-06-04T07:04:23.608Z,22.89
2019-06-04T07:06:53.629Z,22.18
2019-06-04T07:09:23.886Z,22.33
2019-06-04T07:11:55.399Z,22.63
2019-06-04T07:14:24.564Z,21.31
2019-06-04T07:16:52.991Z,21.35
2019-06-04T07:19:21.410Z,20.81
2019-06-04T07:21:49.847Z,21.30
2019-06-04T07:24:18.255Z,21.15
2019-06-04T07:26:46.683Z,20.56
2019-06-04T07:29:15.139Z,21.81
2019-06-04T07:31:43.521Z,21.03
2019-06-04T07:34:12.011Z,20.85
2019-06-04T07:36:40.826Z,20.77
2019-06-04T07:39:09.360Z,20.86
2019-06-04T07:41:38.715Z,20.52
2019-06-04T07:44:08.379Z,21.18
2019-06-04T07:46:37.369Z,21.09
2019-06-04T07:49:06.249Z,20.76
2019-06-04T07:51:35.608Z,21.26
2019-06-04T07:54:04.587Z,21.82
2019-06-04T07:56:33.717Z,21.02
2019-06-04T07:59:02.188Z,21.08
2019-06-04T08:01:52.593Z,20.69
2019-06-04T08:04:01.115Z,20.71
2019-06-04T08:06:43.477Z,21.38
2019-06-04T08:08:59.962Z,21.45
2019-06-04T08:11:28.405Z,20.71
2019-06-04T08:13:57.897Z,20.77
2019-06-04T08:16:26.454Z,21.15
2019-06-04T08:18:54.891Z,21.04
2019-06-04T08:21:41.967Z,21.45
2019-06-04T08:23:53.615Z,20.99
2019-06-04T08:26:22.205Z,21.39
2019-06-04T08:28:50.721Z,21.46
2019-06-04T08:31:19.348Z,21.69
2019-06-04T08:33:48.080Z,21.81
2019-06-04T08:36:16.652Z,21.82
2019-06-04T08:38:55.011Z,21.97
2019-06-04T08:41:15.938Z,21.47
2019-06-04T08:43:45.850Z,21.97
2019-06-04T08:46:14.667Z,21.62
2019-06-04T08:48:44.371Z,22.12
2019-06-04T08:51:13.314Z,22.70
2019-06-04T08:53:42.302Z,22.11
2019-06-04T08:56:10.936Z,22.19
2019-06-04T08:58:41.198Z,22.75
2019-06-04T09:01:10.028Z,22.42
2019-06-04T09:03:39.668Z,22.97
2019-06-04T09:06:08.431Z,22.84
2019-06-04T09:08:38.504Z,22.53
2019-06-04T09:11:06.960Z,22.77
2019-06-04T09:13:35.443Z,22.79
2019-06-04T09:16:04.219Z,23.46
2019-06-04T09:18:32.635Z,23.29
2019-06-04T09:21:01.076Z,23.44
2019-06-04T09:23:29.501Z,22.83
2019-06-04T09:25:57.931Z,22.36
2019-06-04T09:28:27.012Z,23.43
2019-06-04T09:31:02.722Z,23.57
2019-06-04T09:33:25.660Z,23.27
2019-06-04T09:35:54.175Z,23.26
2019-06-04T09:38:22.572Z,24.57
2019-06-04T09:40:52.181Z,23.69
2019-06-04T09:43:21.111Z,23.23
2019-06-04T09:45:50.709Z,23.81
2019-06-04T09:48:19.232Z,23.07
2019-06-04T09:50:56.488Z,22.81
2019-06-04T09:53:17.865Z,23.75
2019-06-04T09:55:48.133Z,23.45
2019-06-04T09:58:32.001Z,23.57
2019-06-04T10:00:49.025Z,23.83
2019-06-04T10:03:18.609Z,24.46
2019-06-04T10:05:47.565Z,23.98
2019-06-04T10:08:16.098Z,23.59
2019-06-04T10:10:45.026Z,24.02
2019-06-04T10:13:14.768Z,24.14
2019-06-04T10:15:45.010Z,23.75
2019-06-04T10:18:13.681Z,23.85
2019-06-04T10:20:43.730Z,23.76
2019-06-04T10:23:12.563Z,24.35
2019-06-04T10:25:41.046Z,23.26
2019-06-04T10:28:09.686Z,23.84
2019-06-04T10:30:38.197Z,24.66
2019-06-04T10:33:13.252Z,24.88
2019-06-04T10:35:37.199Z,24.74
2019-06-04T10:38:23.282Z,25.08
2019-06-04T10:40:37.285Z,24.50
2019-06-04T10:43:06.041Z,24.86
2019-06-04T10:45:34.525Z,24.72
2019-06-04T10:48:02.925Z,24.32
2019-06-04T10:50:36.579Z,24.83
2019-06-04T10:53:07.352Z,24.38
2019-06-04T10:55:36.437Z,24.26
2019-06-04T10:58:05.718Z,25.30
2019-06-04T11:00:42.816Z,25.57
2019-06-04T11:03:11.705Z,24.55
2019-06-04T11:05:40.280Z,24.60
2019-06-04T11:08:08.839Z,24.57
2019-06-04T11:10:37.328Z,24.23
2019-06-04T11:13:06.191Z,24.37
2019-06-04T11:15:34.818Z,24.77
2019-06-04T11:18:03.634Z,24.38
2019-06-04T11:20:32.161Z,24.57
2019-06-04T11:23:00.866Z,24.76
2019-06-04T11:25:29.391Z,25.14
2019-06-04T11:27:59.276Z,24.98
2019-06-04T11:30:28.096Z,24.62
2019-06-04T11:32:57.797Z,25.10
2019-06-04T11:35:26.305Z,24.71
2019-06-04T11:37:56.324Z,25.02
2019-06-04T11:40:25.228Z,25.52
2019-06-04T11:43:02.748Z,25.10
2019-06-04T11:45:35.470Z,25.21
2019-06-04T11:48:04.549Z,25.70
2019-06-04T11:50:33.343Z,25.08
2019-06-04T11:53:02.503Z,25.63
2019-06-04T11:55:31.790Z,25.69
2019-06-04T11:58:02.021Z,25.20
2019-06-04T12:00:46.309Z,25.70
2019-06-04T12:03:15.589Z,25.40
2019-06-04T12:05:44.158Z,25.69
2019-06-04T12:08:12.767Z,25.47
2019-06-04T12:10:41.431Z,25.42
2019-06-04T12:13:09.864Z,25.81
2019-06-04T12:15:38.287Z,25.75
2019-06-04T12:18:07.360Z,25.56
2019-06-04T12:20:36.345Z,25.65
2019-06-04T12:25:37.074Z,25.75
2019-06-04T12:28:07.110Z,25.52
2019-06-04T12:30:37.608Z,25.91
2019-06-04T12:33:06.264Z,26.06
2019-06-04T12:35:36.182Z,25.65
2019-06-04T12:38:09.670Z,25.61
2019-06-04T12:40:37.512Z,26.07
2019-06-04T12:43:07.160Z,26.35
2019-06-04T12:45:36.022Z,26.48
2019-06-04T12:48:08.952Z,26.20
2019-06-04T12:50:39.248Z,26.09
2019-06-04T12:53:09.966Z,26.03
2019-06-04T12:55:39.762Z,25.80
2019-06-04T12:58:11.030Z,25.95
2019-06-04T13:00:41.330Z,25.68
2019-06-04T13:03:12.796Z,25.88
2019-06-04T13:05:44.668Z,26.09
2019-06-04T13:08:29.066Z,25.82
2019-06-04T13:10:45.603Z,25.84
2019-06-04T13:13:15.069Z,26.19
2019-06-04T13:15:45.076Z,26.05
2019-06-04T13:18:22.789Z,25.95
2019-06-04T13:20:45.642Z,26.26
2019-06-04T13:23:15.039Z,26.24
2019-06-04T13:25:43.630Z,27.03
2019-06-04T13:28:15.270Z,26.74
2019-06-04T13:30:59.448Z,26.96
2019-06-04T13:33:28.844Z,26.57
2019-06-04T13:35:57.267Z,27.05
2019-06-04T13:38:25.743Z,27.15
2019-06-04T13:40:54.315Z,27.07
2019-06-04T13:43:22.742Z,27.13
2019-06-04T13:45:51.293Z,27.73
2019-06-04T13:48:19.745Z,27.76
2019-06-04T13:50:48.211Z,27.86
2019-06-04T13:53:23.472Z,27.30
2019-06-04T13:55:47.171Z,27.83
2019-06-04T13:58:18.792Z,27.06
2019-06-04T14:00:45.778Z,27.11
2019-06-04T14:03:14.240Z,27.22
2019-06-04T14:05:42.621Z,27.44
2019-06-04T14:08:12.916Z,27.02
2019-06-04T14:10:50.136Z,27.17
2019-06-04T14:13:12.236Z,27.09
2019-06-04T14:15:40.787Z,27.02
2019-06-04T14:18:11.131Z,26.69
2019-06-04T14:20:39.614Z,26.60
2019-06-04T14:23:14.289Z,26.56
2019-06-04T14:25:41.260Z,26.76
2019-06-04T14:28:12.032Z,26.78
2019-06-04T14:30:39.895Z,26.93
2019-06-04T14:33:08.295Z,26.92
2019-06-04T14:35:36.707Z,27.07
2019-06-04T14:38:08.469Z,27.20
2019-06-04T14:40:37.297Z,27.35
2019-06-04T14:43:07.496Z,27.67
2019-06-04T14:45:35.950Z,27.50
2019-06-04T14:48:04.499Z,27.62
2019-06-04T14:50:32.915Z,27.66
2019-06-04T14:53:01.308Z,27.52
2019-06-04T14:55:29.723Z,27.70
2019-06-04T14:57:58.158Z,27.36
2019-06-04T15:00:26.941Z,27.18
2019-06-04T15:02:55.431Z,27.21
2019-06-04T15:05:23.840Z,27.22
2019-06-04T15:08:01.775Z,27.48
2019-06-04T15:10:22.533Z,27.46
2019-06-04T15:12:50.961Z,27.26
2019-06-04T15:15:21.204Z,27.43
2019-06-04T15:17:49.731Z,27.45
2019-06-04T15:20:18.746Z,27.44
2019-06-04T15:22:47.324Z,27.73
2019-06-04T15:25:24.517Z,27.46
2019-06-04T15:27:53.622Z,27.32
2019-06-04T15:30:22.396Z,27.43
2019-06-04T15:32:52.008Z,27.43
2019-06-04T15:35:20.589Z,27.73
2019-06-04T15:37:48.992Z,27.79
2019-06-04T15:40:18.861Z,27.96
2019-06-04T15:42:47.290Z,28.02
2019-06-04T15:45:31.139Z,27.84
2019-06-04T15:48:00.078Z,27.92
2019-06-04T15:50:28.651Z,27.78
2019-06-04T15:52:57.663Z,28.06
2019-06-04T15:55:26.333Z,28.05
2019-06-04T15:57:54.862Z,28.04
2019-06-04T16:00:23.796Z,27.73
2019-06-04T16:02:52.358Z,27.76
2019-06-04T16:05:21.704Z,27.63
2019-06-04T16:07:50.166Z,27.77
2019-06-04T16:10:23.732Z,27.77
2019-06-04T16:12:48.805Z,27.75
2019-06-04T16:15:19.632Z,27.96
2019-06-04T16:17:47.923Z,27.93
2019-06-04T16:20:20.391Z,27.91
2019-06-04T16:22:49.760Z,27.82
2019-06-04T16:25:20.017Z,27.83
2019-06-04T16:27:49.719Z,27.90
2019-06-04T16:30:38.988Z,28.05
2019-06-04T16:33:07.946Z,27.72
2019-06-04T16:35:36.440Z,27.77
2019-06-04T16:38:05.766Z,27.72
2019-06-04T16:40:34.518Z,27.73
2019-06-04T16:43:03.027Z,27.73
2019-06-04T16:45:31.515Z,27.69
2019-06-04T16:48:00.491Z,27.61
2019-06-04T16:50:29.057Z,27.73
2019-06-04T16:52:57.716Z,27.55
2019-06-04T16:55:27.851Z,27.56
2019-06-04T16:57:56.520Z,27.49
2019-06-04T17:00:26.938Z,27.60
2019-06-04T17:02:55.166Z,27.60
2019-06-04T17:05:23.945Z,27.36
2019-06-04T17:07:52.459Z,27.32
2019-06-04T17:10:43.363Z,27.38
2019-06-04T17:13:22.862Z,27.46
2019-06-04T17:15:51.202Z,27.41
2019-06-04T17:18:20.777Z,27.24
2019-06-04T17:20:50.971Z,27.39
2019-06-04T17:23:19.435Z,27.29
2019-06-04T17:25:47.856Z,27.29
2019-06-04T17:28:16.304Z,27.03
2019-06-04T17:30:44.703Z,27.20
2019-06-04T17:33:13.116Z,27.00
2019-06-04T17:35:41.587Z,27.04
2019-06-04T17:38:10.109Z,27.08
2019-06-04T17:40:38.504Z,27.19
2019-06-04T17:43:07.634Z,27.19
2019-06-04T17:45:36.276Z,27.05
2019-06-04T17:48:05.817Z,26.98
2019-06-04T17:50:34.713Z,27.00
2019-06-04T17:53:03.198Z,27.13
2019-06-04T17:55:32.811Z,27.07
2019-06-04T17:58:01.447Z,27.02
2019-06-04T18:00:35.657Z,27.06
2019-06-04T18:03:05.015Z,26.97
2019-06-04T18:05:35.119Z,27.13
2019-06-04T18:08:04.094Z,26.98
2019-06-04T18:10:33.125Z,26.83
2019-06-04T18:13:01.569Z,26.89
2019-06-04T18:15:31.189Z,26.81
2019-06-04T18:17:59.771Z,27.03
2019-06-04T18:20:28.528Z,26.93
2019-06-04T18:22:56.923Z,26.93
2019-06-04T18:25:25.356Z,27.05
2019-06-04T18:27:53.787Z,26.77
2019-06-04T18:30:22.199Z,26.62
2019-06-04T18:32:50.646Z,26.76
2019-06-04T18:35:19.059Z,26.75
2019-06-04T18:37:47.541Z,26.71
2019-06-04T18:40:15.994Z,26.69
2019-06-04T18:42:44.435Z,26.69
2019-06-04T18:45:14.384Z,26.51
2019-06-04T18:47:45.121Z,26.68
2019-06-04T18:50:13.557Z,26.41
2019-06-04T18:52:42.041Z,26.28
2019-06-04T18:55:10.881Z,26.31
2019-06-04T18:57:40.351Z,26.45
2019-06-04T19:00:09.708Z,26.30
2019-06-04T19:02:38.677Z,26.33
2019-06-04T19:05:08.188Z,26.24
2019-06-04T19:07:37.124Z,26.22
2019-06-04T19:10:11.051Z,26.06
2019-06-04T19:12:39.840Z,26.04
2019-06-04T19:15:12.978Z,26.10
2019-06-04T19:17:43.125Z,25.91
2019-06-04T19:20:13.904Z,26.06
2019-06-04T19:22:42.321Z,25.93
2019-06-04T19:25:11.087Z,25.86
2019-06-04T19:27:39.515Z,25.86
2019-06-04T19:30:08.485Z,25.95
2019-06-04T19:32:39.537Z,26.11
2019-06-04T19:35:07.506Z,25.96
2019-06-04T19:37:37.171Z,25.88
2019-06-04T19:40:10.144Z,25.88
2019-06-04T19:42:39.234Z,25.73
2019-06-04T19:45:08.725Z,25.73
2019-06-04T19:47:38.498Z,25.75
2019-06-04T19:50:08.546Z,25.72
2019-06-04T19:52:37.056Z,25.67
2019-06-04T19:55:06.910Z,25.62
2019-06-04T19:57:35.324Z,25.64
2019-06-04T20:00:06.177Z,25.58
2019-06-04T20:02:35.610Z,25.48
2019-06-04T20:05:07.570Z,25.41
2019-06-04T20:07:36.480Z,25.53
2019-06-04T20:10:06.951Z,25.51
2019-06-04T20:12:36.687Z,25.50
2019-06-04T20:15:08.518Z,25.56
2019-06-04T20:17:37.542Z,25.50
2019-06-04T20:20:07.445Z,25.36
2019-06-04T20:22:37.707Z,25.36
2019-06-04T20:25:10.057Z,25.13
2019-06-04T20:27:38.938Z,25.23
2019-06-04T20:30:09.887Z,25.14
2019-06-04T20:32:43.264Z,25.31
2019-06-04T20:35:14.094Z,25.21
2019-06-04T20:37:39.419Z,25.19
2019-06-04T20:40:08.484Z,25.01
2019-06-04T20:42:36.974Z,25.15
2019-06-04T20:45:13.162Z,25.09
2019-06-04T20:47:37.468Z,25.08
2019-06-04T20:50:06.906Z,24.99
2019-06-04T20:52:35.729Z,25.00
2019-06-04T20:55:05.900Z,24.71
2019-06-04T20:57:34.306Z,25.05
2019-06-04T21:00:04.450Z,24.79
2019-06-04T21:02:32.995Z,24.85
2019-06-04T21:05:01.698Z,24.96
2019-06-04T21:07:30.393Z,24.98
2019-06-04T21:09:58.838Z,25.01
2019-06-04T21:12:27.261Z,24.89
2019-06-04T21:14:55.944Z,24.81
2019-06-04T21:17:24.496Z,24.83
2019-06-04T21:19:54.045Z,24.66
2019-06-04T21:22:22.627Z,24.75
2019-06-04T21:24:51.446Z,24.84
2019-06-04T21:27:19.958Z,24.89
2019-06-04T21:29:49.715Z,24.82
2019-06-04T21:32:18.274Z,24.81
2019-06-04T21:34:46.943Z,24.77
2019-06-04T21:37:15.399Z,24.67
2019-06-04T21:39:48.323Z,24.63
2019-06-04T21:42:13.959Z,24.85
2019-06-04T21:44:42.381Z,24.73
2019-06-04T21:47:11.294Z,24.87
2019-06-04T21:49:39.709Z,24.88
2019-06-04T21:52:08.105Z,24.72
2019-06-04T21:54:36.525Z,24.64
2019-06-04T21:57:05.092Z,24.68
2019-06-04T21:59:33.529Z,24.57
2019-06-04T22:02:02.963Z,23.90
2019-06-04T22:04:31.393Z,22.35
2019-06-04T22:07:01.102Z,21.66
2019-06-04T22:09:31.315Z,21.42
2019-06-04T22:12:00.879Z,21.10
2019-06-04T22:14:29.437Z,21.02
2019-06-04T22:16:57.850Z,20.78
2019-06-04T22:19:26.285Z,20.59
2019-06-04T22:21:54.834Z,19.92
2019-06-04T22:24:23.337Z,19.71
2019-06-04T22:26:51.999Z,19.49
2019-06-04T22:29:20.420Z,19.39
2019-06-04T22:31:49.914Z,19.32
2019-06-04T22:34:19.086Z,18.99
2019-06-04T22:36:49.681Z,19.27
2019-06-04T22:39:17.652Z,19.59
2019-06-04T22:41:46.093Z,19.53
2019-06-04T22:44:14.500Z,19.56
2019-06-04T22:46:42.914Z,19.59
2019-06-04T22:49:11.326Z,19.69
2019-06-04T22:51:39.748Z,19.59
2019-06-04T22:54:08.157Z,19.52
2019-06-04T22:56:36.579Z,19.65
2019-06-04T22:59:04.991Z,19.66
2019-06-04T23:01:33.422Z,19.81
2019-06-04T23:04:05.303Z,19.83
2019-06-04T23:06:35.697Z,19.80
2019-06-04T23:09:02.629Z,19.75
2019-06-04T23:11:31.203Z,19.69
2019-06-04T23:14:01.260Z,19.66
2019-06-04T23:16:37.563Z,19.72
2019-06-04T23:19:01.576Z,19.65
2019-06-04T23:21:30.106Z,19.27
2019-06-04T23:23:59.757Z,18.92
2019-06-04T23:26:28.248Z,18.92
2019-06-04T23:28:56.737Z,19.01
2019-06-04T23:31:25.164Z,19.16
2019-06-04T23:33:54.621Z,19.25
2019-06-04T23:36:23.077Z,19.35
2019-06-04T23:38:51.569Z,19.35
2019-06-04T23:41:19.944Z,19.27
2019-06-04T23:43:48.379Z,19.22
2019-06-04T23:46:16.794Z,19.18
2019-06-04T23:48:45.232Z,19.16
2019-06-04T23:51:13.629Z,19.17
2019-06-04T23:53:42.072Z,19.17
2019-06-04T23:56:10.528Z,19.11
2019-06-04T23:58:38.974Z,19.02
